createdAt,value
2023-03-04T00:00:32.567Z,30.50
2023-03-04T00:01:32.535Z,25.90
2023-03-04T00:02:32.677Z,28.10
2023-03-04T00:03:32.513Z,28.00
2023-03-04T00:04:32.533Z,33.70
2023-03-04T00:05:32.581Z,26.10
2023-03-04T00:06:32.507Z,26.00
2023-03-04T00:07:32.496Z,26.50
2023-03-04T00:08:32.511Z,24.60
2023-03-04T00:09:32.510Z,31.50
2023-03-04T00:10:32.639Z,32.10
2023-03-04T00:11:32.445Z,28.30
2023-03-04T00:12:32.464Z,23.80
2023-03-04T00:13:32.449Z,25.70
2023-03-04T00:14:32.408Z,24.10
2023-03-04T00:15:32.396Z,29.10
2023-03-04T00:16:32.419Z,27.40
2023-03-04T00:17:32.424Z,28.40
2023-03-04T00:18:32.368Z,27.70
2023-03-04T00:19:32.369Z,28.10
2023-03-04T00:20:32.487Z,28.70
2023-03-04T00:21:32.335Z,31.10
2023-03-04T00:22:32.330Z,30.10
2023-03-04T00:23:32.325Z,32.10
2023-03-04T00:24:32.360Z,32.30
2023-03-04T00:25:32.356Z,28.80
2023-03-04T00:26:32.300Z,27.50
2023-03-04T00:27:32.280Z,29.90
2023-03-04T00:28:32.275Z,23.60
2023-03-04T00:29:32.258Z,23.80
2023-03-04T00:30:32.270Z,25.90
2023-03-04T00:31:32.298Z,31.80
2023-03-04T00:32:32.345Z,29.40
2023-03-04T00:33:32.238Z,29.70
2023-03-04T00:34:33.002Z,28.40
2023-03-04T00:35:32.256Z,34.10
2023-03-04T00:36:32.198Z,30.30
2023-03-04T00:37:32.301Z,26.70
2023-03-04T00:38:32.189Z,28.00
2023-03-04T00:39:32.225Z,36.10
2023-03-04T00:40:32.155Z,33.60
2023-03-04T00:41:32.145Z,42.20
2023-03-04T00:42:32.185Z,38.40
2023-03-04T00:43:32.125Z,41.20
2023-03-04T00:44:32.121Z,39.40
2023-03-04T00:45:32.142Z,33.60
2023-03-04T00:46:32.181Z,30.00
2023-03-04T00:47:32.108Z,27.70
2023-03-04T00:48:32.124Z,26.90
2023-03-04T00:49:32.075Z,31.80
2023-03-04T00:50:32.108Z,32.40
2023-03-04T00:51:32.101Z,32.20
2023-03-04T00:52:32.123Z,35.60
2023-03-04T00:53:32.043Z,30.80
2023-03-04T00:54:32.066Z,26.40
2023-03-04T00:55:32.038Z,33.60
2023-03-04T00:56:32.057Z,30.20
2023-03-04T00:57:31.998Z,39.40
2023-03-04T00:58:31.982Z,29.40
2023-03-04T00:59:31.974Z,36.40
2023-03-04T01:00:31.992Z,32.00
2023-03-04T01:01:32.110Z,30.80
2023-03-04T01:02:32.032Z,39.10
2023-03-04T01:03:31.949Z,35.50
2023-03-04T01:04:31.934Z,38.30
2023-03-04T01:05:31.911Z,42.80
2023-03-04T01:06:32.012Z,36.80
2023-03-04T01:07:31.927Z,30.80
2023-03-04T01:08:31.973Z,38.10
2023-03-04T01:09:31.900Z,34.90
2023-03-04T01:10:31.873Z,37.20
2023-03-04T01:11:31.855Z,32.90
2023-03-04T01:12:31.860Z,33.40
2023-03-04T01:13:31.836Z,31.70
2023-03-04T01:14:31.841Z,27.90
2023-03-04T01:15:31.843Z,30.20
2023-03-04T01:16:31.913Z,29.80
2023-03-04T01:17:31.835Z,33.40
2023-03-04T01:18:31.803Z,31.70
2023-03-04T01:19:31.800Z,32.40
2023-03-04T01:20:31.768Z,28.90
2023-03-04T01:21:31.809Z,39.00
2023-03-04T01:22:31.762Z,26.30
2023-03-04T01:23:31.763Z,32.10
2023-03-04T01:24:31.748Z,28.00
2023-03-04T01:25:31.830Z,30.10
2023-03-04T01:26:31.734Z,28.20
2023-03-04T01:27:31.707Z,31.70
2023-03-04T01:28:31.867Z,29.10
2023-03-04T01:29:31.686Z,25.60
2023-03-04T01:30:31.697Z,30.60
2023-03-04T01:31:31.659Z,30.30
2023-03-04T01:32:31.740Z,32.90
2023-03-04T01:33:31.681Z,30.70
2023-03-04T01:34:31.658Z,27.60
2023-03-04T01:35:31.750Z,28.50
2023-03-04T01:36:31.620Z,24.50
2023-03-04T01:37:31.608Z,26.00
2023-03-04T01:38:31.604Z,27.50
2023-03-04T01:39:31.660Z,30.30
2023-03-04T01:40:31.667Z,28.00
2023-03-04T01:41:31.675Z,26.10
2023-03-04T01:42:31.557Z,29.70
2023-03-04T01:43:31.551Z,27.90
2023-03-04T01:44:31.622Z,24.60
2023-03-04T01:45:31.560Z,28.40
2023-03-04T01:46:31.580Z,27.10
2023-03-04T01:47:31.527Z,26.80
2023-03-04T01:48:31.556Z,27.10
2023-03-04T01:49:31.500Z,28.90
2023-03-04T01:50:31.490Z,25.90
2023-03-04T01:51:31.485Z,31.30
2023-03-04T01:52:31.472Z,28.40
2023-03-04T01:53:31.461Z,29.00
2023-03-04T01:54:31.451Z,35.30
2023-03-04T01:55:31.457Z,25.70
2023-03-04T01:56:31.430Z,30.30
2023-03-04T01:57:31.412Z,34.50
2023-03-04T01:58:31.457Z,32.80
2023-03-04T01:59:31.426Z,29.90
2023-03-04T02:00:31.468Z,29.00
2023-03-04T02:01:31.404Z,26.60
2023-03-04T02:02:31.376Z,27.10
2023-03-04T02:03:31.382Z,34.20
2023-03-04T02:04:31.497Z,26.60
2023-03-04T02:05:31.346Z,34.10
2023-03-04T02:06:31.415Z,30.10
2023-03-04T02:07:31.344Z,29.00
2023-03-04T02:08:31.314Z,31.40
2023-03-04T02:09:31.337Z,30.50
2023-03-04T02:10:31.291Z,30.80
2023-03-04T02:11:31.283Z,22.90
2023-03-04T02:12:31.336Z,34.10
2023-03-04T02:13:31.288Z,28.00
2023-03-04T02:14:31.260Z,30.40
2023-03-04T02:15:31.316Z,28.50
2023-03-04T02:16:31.234Z,32.10
2023-03-04T02:17:31.223Z,33.10
2023-03-04T02:18:31.238Z,27.40
2023-03-04T02:19:31.265Z,28.10
2023-03-04T02:20:31.201Z,30.20
2023-03-04T02:21:31.187Z,30.50
2023-03-04T02:22:31.193Z,33.80
2023-03-04T02:23:31.180Z,31.60
2023-03-04T02:24:31.159Z,30.50
2023-03-04T02:25:31.173Z,30.30
2023-03-04T02:26:31.153Z,32.00
2023-03-04T02:27:31.153Z,32.10
2023-03-04T02:28:31.130Z,23.50
2023-03-04T02:29:31.151Z,27.90
2023-03-04T02:30:31.120Z,29.80
2023-03-04T02:31:31.122Z,29.50
2023-03-04T02:32:31.124Z,28.60
2023-03-04T02:33:31.073Z,33.40
2023-03-04T02:34:31.061Z,28.90
2023-03-04T02:35:31.158Z,30.80
2023-03-04T02:36:31.053Z,32.60
2023-03-04T02:37:31.242Z,31.20
2023-03-04T02:38:31.053Z,30.60
2023-03-04T02:39:31.014Z,36.70
2023-03-04T02:40:31.068Z,30.60
2023-03-04T02:41:30.995Z,26.30
2023-03-04T02:42:30.994Z,33.00
2023-03-04T02:43:31.068Z,25.00
2023-03-04T02:44:31.008Z,26.60
2023-03-04T02:45:31.009Z,30.90
2023-03-04T02:46:31.126Z,32.80
2023-03-04T02:47:30.941Z,34.60
2023-03-04T02:48:30.975Z,29.30
2023-03-04T02:49:30.949Z,32.10
2023-03-04T02:50:30.920Z,28.20
2023-03-04T02:51:30.927Z,29.70
2023-03-04T02:52:30.930Z,29.10
2023-03-04T02:53:30.899Z,35.20
2023-03-04T02:54:30.903Z,38.10
2023-03-04T02:55:30.902Z,29.70
2023-03-04T02:56:30.972Z,33.90
2023-03-04T02:57:30.894Z,31.00
2023-03-04T02:58:30.944Z,38.20
2023-03-04T02:59:30.853Z,30.40
2023-03-04T03:00:30.826Z,33.90
2023-03-04T03:01:30.868Z,33.70
2023-03-04T03:02:30.835Z,31.20
2023-03-04T03:03:30.811Z,29.90
2023-03-04T03:04:30.919Z,30.50
2023-03-04T03:05:30.775Z,32.80
2023-03-04T03:06:30.775Z,42.20
2023-03-04T03:07:30.751Z,33.50
2023-03-04T03:08:30.791Z,35.70
2023-03-04T03:09:30.939Z,38.70
2023-03-04T03:10:30.742Z,34.70
2023-03-04T03:11:30.715Z,32.60
2023-03-04T03:12:30.809Z,30.30
2023-03-04T03:13:30.721Z,31.80
2023-03-04T03:14:30.733Z,29.30
2023-03-04T03:15:30.790Z,33.00
2023-03-04T03:16:30.781Z,31.70
2023-03-04T03:17:30.670Z,32.20
2023-03-04T03:18:30.694Z,29.60
2023-03-04T03:19:30.670Z,35.30
2023-03-04T03:20:30.627Z,34.90
2023-03-04T03:21:30.675Z,37.10
2023-03-04T03:22:30.616Z,35.30
2023-03-04T03:23:30.600Z,39.20
2023-03-04T03:24:30.648Z,30.70
2023-03-04T03:25:30.608Z,33.20
2023-03-04T03:26:30.604Z,36.60
2023-03-04T03:27:30.573Z,34.40
2023-03-04T03:28:30.550Z,35.50
2023-03-04T03:29:30.545Z,41.70
2023-03-04T03:30:30.635Z,28.50
2023-03-04T03:31:30.564Z,33.50
2023-03-04T03:32:30.599Z,37.30
2023-03-04T03:33:30.552Z,35.60
2023-03-04T03:34:30.526Z,26.80
2023-03-04T03:35:30.494Z,31.60
2023-03-04T03:36:30.501Z,27.60
2023-03-04T03:37:30.467Z,30.20
2023-03-04T03:38:30.461Z,28.70
2023-03-04T03:39:30.475Z,27.80
2023-03-04T03:40:30.462Z,31.30
2023-03-04T03:41:30.432Z,33.80
2023-03-04T03:42:30.444Z,32.00
2023-03-04T03:43:30.401Z,29.30
2023-03-04T03:44:30.410Z,34.70
2023-03-04T03:45:30.424Z,32.90
2023-03-04T03:46:30.382Z,29.50
2023-03-04T03:47:30.388Z,34.60
2023-03-04T03:48:30.400Z,33.30
2023-03-04T03:49:30.358Z,37.50
2023-03-04T03:50:30.339Z,33.90
2023-03-04T03:51:30.325Z,27.00
2023-03-04T03:52:30.380Z,31.80
2023-03-04T03:53:30.329Z,35.90
2023-03-04T03:54:30.300Z,32.50
2023-03-04T03:55:30.335Z,34.20
2023-03-04T03:56:30.283Z,33.50
2023-03-04T03:57:30.284Z,27.60
2023-03-04T03:58:30.322Z,39.60
2023-03-04T03:59:30.272Z,34.80
2023-03-04T04:00:30.257Z,30.80
2023-03-04T04:01:30.340Z,25.20
2023-03-04T04:02:30.285Z,36.40
2023-03-04T04:03:30.217Z,26.90
2023-03-04T04:04:30.286Z,29.20
2023-03-04T04:05:30.220Z,34.30
2023-03-04T04:06:30.205Z,30.30
2023-03-04T04:07:30.236Z,34.80
2023-03-04T04:08:30.167Z,34.00
2023-03-04T04:09:30.157Z,35.00
2023-03-04T04:10:30.181Z,33.30
2023-03-04T04:11:30.183Z,31.10
2023-03-04T04:12:30.225Z,30.40
2023-03-04T04:13:30.166Z,33.80
2023-03-04T04:14:30.117Z,36.20
2023-03-04T04:15:30.099Z,33.20
2023-03-04T04:16:30.200Z,38.20
2023-03-04T04:17:30.086Z,42.30
2023-03-04T04:18:30.095Z,35.80
2023-03-04T04:19:30.100Z,30.90
2023-03-04T04:20:30.062Z,36.30
2023-03-04T04:21:30.058Z,34.00
2023-03-04T04:22:30.148Z,31.20
2023-03-04T04:23:30.049Z,36.40
2023-03-04T04:24:30.028Z,35.60
2023-03-04T04:25:30.070Z,35.10
2023-03-04T04:26:29.998Z,37.20
2023-03-04T04:27:30.008Z,39.80
2023-03-04T04:28:30.065Z,33.00
2023-03-04T04:29:30.143Z,32.00
2023-03-04T04:30:30.031Z,33.90
2023-03-04T04:31:29.964Z,31.80
2023-03-04T04:32:30.106Z,35.80
2023-03-04T04:33:29.959Z,31.40
2023-03-04T04:34:29.950Z,29.20
2023-03-04T04:35:30.057Z,42.00
2023-03-04T04:36:29.905Z,38.10
2023-03-04T04:37:29.925Z,36.30
2023-03-04T04:38:29.892Z,33.50
2023-03-04T04:39:29.876Z,34.40
2023-03-04T04:40:29.920Z,29.70
2023-03-04T04:41:29.857Z,33.60
2023-03-04T04:42:29.857Z,34.10
2023-03-04T04:43:29.900Z,31.50
2023-03-04T04:44:29.828Z,34.90
2023-03-04T04:45:29.821Z,32.10
2023-03-04T04:46:29.962Z,33.50
2023-03-04T04:47:29.798Z,34.50
2023-03-04T04:48:29.787Z,37.90
2023-03-04T04:49:29.850Z,37.80
2023-03-04T04:50:32.562Z,35.40
2023-03-04T04:51:29.787Z,36.50
2023-03-04T04:52:29.770Z,32.90
2023-03-04T04:53:29.752Z,38.80
2023-03-04T04:54:29.752Z,33.50
2023-03-04T04:55:29.825Z,33.00
2023-03-04T04:56:29.753Z,35.20
2023-03-04T04:57:29.714Z,35.00
2023-03-04T04:58:29.724Z,40.50
2023-03-04T04:59:29.708Z,37.50
2023-03-04T05:00:29.691Z,37.90
2023-03-04T05:01:29.793Z,38.10
2023-03-04T05:02:29.658Z,33.40
2023-03-04T05:03:29.704Z,37.90
2023-03-04T05:04:29.719Z,40.50
2023-03-04T05:05:29.635Z,34.50
2023-03-04T05:06:29.624Z,34.90
2023-03-04T05:07:29.715Z,31.70
2023-03-04T05:08:29.609Z,41.00
2023-03-04T05:09:29.616Z,41.50
2023-03-04T05:10:29.607Z,33.10
2023-03-04T05:11:29.576Z,34.60
2023-03-04T05:12:29.584Z,42.70
2023-03-04T05:13:29.566Z,33.50
2023-03-04T05:14:29.596Z,33.10
2023-03-04T05:15:29.597Z,33.70
2023-03-04T05:16:29.537Z,37.10
2023-03-04T05:17:29.581Z,40.00
2023-03-04T05:18:29.545Z,30.60
2023-03-04T05:19:29.502Z,39.70
2023-03-04T05:20:29.556Z,38.10
2023-03-04T05:21:29.487Z,35.90
2023-03-04T05:22:29.476Z,41.10
2023-03-04T05:23:29.490Z,35.70
2023-03-04T05:24:29.413Z,36.40
2023-03-04T05:25:29.403Z,32.20
2023-03-04T05:26:29.406Z,41.00
2023-03-04T05:27:29.438Z,39.30
2023-03-04T05:28:29.397Z,36.50
2023-03-04T05:29:29.366Z,31.60
2023-03-04T05:30:29.373Z,39.70
2023-03-04T05:31:29.485Z,34.40
2023-03-04T05:32:29.401Z,35.30
2023-03-04T05:33:29.326Z,37.90
2023-03-04T05:34:29.496Z,39.60
2023-03-04T05:35:29.346Z,30.50
2023-03-04T05:36:29.325Z,49.70
2023-03-04T05:37:29.400Z,30.20
2023-03-04T05:38:29.303Z,30.00
2023-03-04T05:39:29.312Z,41.40
2023-03-04T05:40:29.295Z,43.80
2023-03-04T05:41:29.270Z,34.60
2023-03-04T05:42:29.251Z,40.50
2023-03-04T05:43:29.262Z,34.60
2023-03-04T05:44:29.241Z,39.20
2023-03-04T05:45:29.246Z,34.90
2023-03-04T05:46:31.182Z,41.00
2023-03-04T05:47:29.203Z,42.90
2023-03-04T05:48:29.211Z,40.10
2023-03-04T05:49:29.204Z,36.40
2023-03-04T05:50:29.170Z,36.50
2023-03-04T05:51:29.216Z,36.00
2023-03-04T05:52:29.143Z,40.20
2023-03-04T05:53:29.141Z,35.20
2023-03-04T05:54:29.160Z,38.30
2023-03-04T05:55:29.137Z,32.70
2023-03-04T05:56:29.104Z,34.20
2023-03-04T05:57:31.470Z,38.60
2023-03-04T05:58:29.081Z,37.20
2023-03-04T05:59:29.080Z,39.90
2023-03-04T06:00:29.122Z,30.70
2023-03-04T06:01:29.067Z,39.40
2023-03-04T06:02:29.174Z,36.70
2023-03-04T06:03:29.078Z,43.30
2023-03-04T06:04:29.036Z,39.40
2023-03-04T06:05:29.021Z,33.50
2023-03-04T06:06:29.083Z,32.30
2023-03-04T06:07:29.027Z,35.80
2023-03-04T06:08:29.005Z,30.50
2023-03-04T06:09:29.039Z,39.50
2023-03-04T06:10:28.972Z,31.30
2023-03-04T06:11:28.965Z,40.00
2023-03-04T06:12:29.011Z,36.50
2023-03-04T06:13:28.972Z,36.10
2023-03-04T06:14:28.958Z,36.70
2023-03-04T06:15:28.987Z,39.70
2023-03-04T06:16:28.924Z,31.30
2023-03-04T06:17:28.904Z,32.50
2023-03-04T06:18:28.949Z,38.30
2023-03-04T06:19:28.908Z,39.30
2023-03-04T06:20:28.896Z,32.90
2023-03-04T06:21:28.900Z,43.30
2023-03-04T06:22:28.865Z,35.90
2023-03-04T06:23:28.854Z,35.50
2023-03-04T06:24:28.873Z,35.30
2023-03-04T06:25:28.876Z,34.60
2023-03-04T06:26:28.885Z,35.90
2023-03-04T06:27:28.865Z,32.30
2023-03-04T06:28:28.796Z,36.70
2023-03-04T06:29:28.804Z,32.60
2023-03-04T06:30:28.806Z,33.30
2023-03-04T06:31:28.821Z,31.10
2023-03-04T06:32:28.956Z,33.00
2023-03-04T06:33:28.774Z,40.10
2023-03-04T06:34:28.790Z,34.10
2023-03-04T06:35:28.774Z,33.70
2023-03-04T06:36:28.727Z,40.60
2023-03-04T06:37:28.729Z,41.20
2023-03-04T06:38:28.733Z,35.40
2023-03-04T06:39:28.698Z,29.60
2023-03-04T06:40:28.711Z,36.50
2023-03-04T06:41:28.713Z,36.70
2023-03-04T06:42:28.665Z,30.60
2023-03-04T06:43:28.656Z,30.60
2023-03-04T06:44:28.846Z,30.30
2023-03-04T06:45:28.636Z,34.70
2023-03-04T06:46:30.452Z,34.70
2023-03-04T06:47:28.676Z,29.40
2023-03-04T06:48:28.619Z,42.40
2023-03-04T06:49:28.594Z,39.50
2023-03-04T06:50:28.608Z,31.60
2023-03-04T06:51:28.590Z,34.70
2023-03-04T06:52:28.595Z,35.70
2023-03-04T06:53:28.621Z,41.30
2023-03-04T06:54:28.551Z,41.20
2023-03-04T06:55:28.565Z,37.40
2023-03-04T06:56:28.561Z,40.70
2023-03-04T06:57:28.566Z,48.80
2023-03-04T06:58:28.537Z,36.20
2023-03-04T06:59:28.506Z,40.10
2023-03-04T07:00:28.574Z,38.90
2023-03-04T07:01:28.492Z,37.90
2023-03-04T07:02:28.501Z,37.30
2023-03-04T07:03:28.487Z,41.90
2023-03-04T07:04:28.500Z,39.50
2023-03-04T07:05:28.449Z,40.50
2023-03-04T07:06:28.435Z,41.60
2023-03-04T07:07:28.462Z,37.80
2023-03-04T07:08:28.436Z,37.50
2023-03-04T07:09:28.425Z,33.60
2023-03-04T07:10:28.443Z,36.40
2023-03-04T07:11:28.411Z,33.80
2023-03-04T07:12:28.389Z,32.80
2023-03-04T07:13:28.380Z,31.40
2023-03-04T07:14:28.357Z,36.30
2023-03-04T07:15:28.372Z,38.50
2023-03-04T07:16:28.486Z,31.40
2023-03-04T07:17:28.408Z,37.90
2023-03-04T07:18:28.333Z,32.90
2023-03-04T07:19:28.376Z,39.60
2023-03-04T07:20:30.735Z,32.40
2023-03-04T07:21:28.406Z,32.00
2023-03-04T07:22:28.300Z,36.00
2023-03-04T07:23:28.272Z,35.50
2023-03-04T07:24:28.380Z,37.70
2023-03-04T07:25:28.282Z,33.00
2023-03-04T07:26:28.260Z,28.80
2023-03-04T07:27:28.266Z,32.50
2023-03-04T07:28:28.261Z,35.60
2023-03-04T07:29:28.235Z,28.70
2023-03-04T07:30:28.218Z,27.10
2023-03-04T07:31:28.262Z,27.80
2023-03-04T07:32:28.194Z,25.70
2023-03-04T07:33:28.279Z,27.80
2023-03-04T07:34:28.173Z,21.60
2023-03-04T07:35:28.177Z,21.80
2023-03-04T07:36:28.176Z,22.00
2023-03-04T07:37:28.137Z,17.20
2023-03-04T07:38:28.171Z,24.00
2023-03-04T07:39:28.153Z,21.80
2023-03-04T07:40:28.276Z,20.60
2023-03-04T07:41:28.134Z,21.90
2023-03-04T07:42:28.086Z,23.40
2023-03-04T07:43:28.158Z,21.80
2023-03-04T07:44:28.098Z,19.20
2023-03-04T07:45:28.101Z,19.00
2023-03-04T07:46:28.046Z,25.10
2023-03-04T07:47:28.054Z,21.10
2023-03-04T07:48:28.027Z,21.80
2023-03-04T07:49:28.187Z,21.90
2023-03-04T07:50:28.014Z,24.30
2023-03-04T07:51:28.006Z,22.10
2023-03-04T07:52:28.006Z,22.80
2023-03-04T07:53:28.018Z,24.00
2023-03-04T07:54:27.965Z,24.30
2023-03-04T07:55:28.026Z,22.80
2023-03-04T07:56:27.972Z,25.60
2023-03-04T07:57:27.989Z,23.50
2023-03-04T07:58:27.925Z,23.00
2023-03-04T07:59:27.932Z,23.90
2023-03-04T08:00:27.922Z,27.90
2023-03-04T08:01:27.955Z,26.00
2023-03-04T08:02:27.941Z,34.30
2023-03-04T08:03:27.914Z,29.30
2023-03-04T08:04:27.976Z,21.70
2023-03-04T08:05:27.887Z,26.80
2023-03-04T08:06:27.883Z,26.90
2023-03-04T08:07:27.843Z,26.70
2023-03-04T08:08:27.830Z,25.80
2023-03-04T08:09:27.883Z,26.70
2023-03-04T08:10:27.875Z,29.80
2023-03-04T08:11:27.824Z,28.00
2023-03-04T08:12:27.873Z,27.10
2023-03-04T08:13:27.797Z,24.50
2023-03-04T08:14:27.839Z,26.60
2023-03-04T08:15:27.837Z,26.90
2023-03-04T08:16:27.762Z,29.10
2023-03-04T08:17:27.805Z,29.60
2023-03-04T08:18:27.723Z,33.70
2023-03-04T08:19:27.787Z,33.00
2023-03-04T08:20:27.723Z,27.00
2023-03-04T08:21:27.706Z,29.00
2023-03-04T08:22:27.680Z,27.90
2023-03-04T08:23:27.739Z,25.20
2023-03-04T08:24:27.827Z,27.70
2023-03-04T08:25:27.661Z,33.70
2023-03-04T08:26:27.686Z,29.60
2023-03-04T08:27:27.718Z,24.50
2023-03-04T08:28:27.668Z,30.70
2023-03-04T08:29:27.619Z,28.60
2023-03-04T08:30:27.711Z,29.70
2023-03-04T08:31:27.687Z,28.00
2023-03-04T08:32:27.760Z,25.20
2023-03-04T08:33:27.610Z,28.50
2023-03-04T08:34:27.589Z,27.30
2023-03-04T08:35:27.566Z,28.00
2023-03-04T08:36:27.549Z,31.40
2023-03-04T08:37:27.558Z,27.50
2023-03-04T08:38:27.557Z,28.10
2023-03-04T08:39:27.660Z,28.60
2023-03-04T08:40:27.516Z,25.10
2023-03-04T08:41:27.594Z,28.70
2023-03-04T08:42:27.501Z,24.60
2023-03-04T08:43:27.549Z,29.10
2023-03-04T08:44:27.483Z,29.00
2023-03-04T08:45:27.583Z,25.20
2023-03-04T08:46:27.561Z,24.00
2023-03-04T08:47:27.441Z,27.50
2023-03-04T08:48:27.421Z,28.40
2023-03-04T08:49:27.444Z,22.10
2023-03-04T08:50:27.553Z,25.70
2023-03-04T08:51:27.458Z,26.00
2023-03-04T08:52:27.382Z,30.80
2023-03-04T08:53:27.579Z,30.00
2023-03-04T08:54:27.361Z,30.00
2023-03-04T08:55:27.417Z,28.40
2023-03-04T08:56:27.343Z,28.90
2023-03-04T08:57:27.328Z,27.60
2023-03-04T08:58:27.355Z,25.10
2023-03-04T08:59:27.434Z,30.00
2023-03-04T09:00:27.367Z,29.90
2023-03-04T09:01:27.369Z,29.40
2023-03-04T09:02:27.288Z,31.90
2023-03-04T09:03:27.425Z,23.80
2023-03-04T09:04:27.286Z,24.90
2023-03-04T09:05:27.253Z,27.60
2023-03-04T09:06:27.331Z,27.20
2023-03-04T09:07:27.254Z,29.70
2023-03-04T09:08:27.240Z,25.00
2023-03-04T09:09:27.266Z,29.70
2023-03-04T09:10:27.323Z,25.20
2023-03-04T09:11:27.255Z,32.90
2023-03-04T09:12:27.185Z,31.60
2023-03-04T09:13:27.227Z,24.30
2023-03-04T09:14:27.173Z,30.20
2023-03-04T09:15:27.157Z,31.70
2023-03-04T09:16:27.264Z,27.00
2023-03-04T09:17:27.200Z,26.10
2023-03-04T09:18:27.212Z,30.30
2023-03-04T09:19:27.128Z,25.90
2023-03-04T09:20:27.284Z,34.10
2023-03-04T09:21:27.120Z,29.70
2023-03-04T09:22:27.102Z,31.70
2023-03-04T09:23:27.087Z,25.80
2023-03-04T09:24:27.090Z,32.30
2023-03-04T09:25:27.068Z,26.70
2023-03-04T09:26:27.138Z,29.40
2023-03-04T09:27:27.076Z,32.10
2023-03-04T09:28:27.040Z,31.00
2023-03-04T09:29:27.013Z,31.60
2023-03-04T09:30:28.137Z,26.90
2023-03-04T09:31:27.166Z,27.20
2023-03-04T09:32:27.054Z,29.50
2023-03-04T09:33:27.020Z,33.30
2023-03-04T09:34:27.020Z,31.80
2023-03-04T09:35:27.006Z,33.00
2023-03-04T09:36:26.998Z,31.10
2023-03-04T09:37:26.937Z,27.90
2023-03-04T09:38:26.911Z,31.60
2023-03-04T09:39:26.961Z,29.90
2023-03-04T09:40:26.917Z,28.50
2023-03-04T09:41:26.953Z,29.30
2023-03-04T09:42:26.877Z,26.70
2023-03-04T09:43:26.885Z,29.00
2023-03-04T09:44:26.858Z,30.20
2023-03-04T09:45:26.862Z,36.90
2023-03-04T09:46:26.842Z,34.70
2023-03-04T09:47:26.921Z,28.20
2023-03-04T09:48:26.835Z,30.20
2023-03-04T09:49:26.871Z,35.00
2023-03-04T09:50:26.845Z,27.50
2023-03-04T09:51:26.837Z,34.10
2023-03-04T09:52:26.805Z,34.50
2023-03-04T09:53:26.784Z,33.80
2023-03-04T09:54:26.849Z,30.30
2023-03-04T09:55:26.751Z,26.40
2023-03-04T09:56:26.761Z,34.40
2023-03-04T09:57:26.773Z,31.70
2023-03-04T09:58:26.796Z,32.00
2023-03-04T09:59:26.703Z,25.80
2023-03-04T10:00:26.761Z,29.20
2023-03-04T10:01:26.752Z,22.10
2023-03-04T10:02:26.754Z,24.40
2023-03-04T10:03:26.717Z,28.30
2023-03-04T10:04:26.700Z,33.80
2023-03-04T10:05:26.638Z,27.20
2023-03-04T10:06:26.667Z,37.40
2023-03-04T10:07:26.707Z,30.90
2023-03-04T10:08:26.612Z,25.60
2023-03-04T10:09:26.687Z,28.60
2023-03-04T10:10:26.629Z,28.50
2023-03-04T10:11:26.620Z,26.70
2023-03-04T10:12:26.631Z,28.70
2023-03-04T10:13:26.758Z,32.60
2023-03-04T10:14:26.572Z,30.00
2023-03-04T10:15:26.555Z,26.10
2023-03-04T10:16:26.556Z,33.10
2023-03-04T10:17:26.511Z,30.70
2023-03-04T10:18:26.934Z,26.40
2023-03-04T10:19:26.648Z,32.60
2023-03-04T10:20:26.498Z,29.70
2023-03-04T10:21:26.584Z,28.30
2023-03-04T10:22:26.678Z,21.60
2023-03-04T10:23:26.648Z,28.30
2023-03-04T10:24:26.444Z,22.90
2023-03-04T10:25:26.697Z,27.70
2023-03-04T10:26:26.531Z,27.70
2023-03-04T10:27:26.469Z,31.60
2023-03-04T10:28:26.548Z,26.80
2023-03-04T10:29:26.410Z,24.10
2023-03-04T10:30:26.449Z,23.40
2023-03-04T10:31:26.398Z,25.50
2023-03-04T10:32:26.517Z,32.00
2023-03-04T10:33:26.429Z,26.80
2023-03-04T10:34:26.408Z,27.40
2023-03-04T10:35:26.341Z,21.70
2023-03-04T10:36:26.671Z,26.90
2023-03-04T10:37:26.351Z,19.70
2023-03-04T10:38:26.288Z,23.70
2023-03-04T10:39:26.345Z,23.70
2023-03-04T10:40:26.277Z,25.10
2023-03-04T10:41:26.249Z,20.90
2023-03-04T10:42:26.619Z,25.30
2023-03-04T10:43:26.395Z,20.60
2023-03-04T10:44:26.281Z,28.10
2023-03-04T10:45:26.312Z,26.70
2023-03-04T10:46:26.230Z,26.80
2023-03-04T10:47:26.184Z,28.50
2023-03-04T10:48:26.212Z,28.20
2023-03-04T10:49:26.178Z,30.20
2023-03-04T10:50:26.307Z,22.90
2023-03-04T10:51:26.178Z,28.30
2023-03-04T10:52:26.139Z,28.60
2023-03-04T10:53:26.145Z,28.40
2023-03-04T10:54:26.136Z,32.00
2023-03-04T10:55:26.125Z,26.10
2023-03-04T10:56:26.092Z,24.20
2023-03-04T10:57:26.126Z,27.50
2023-03-04T10:58:26.084Z,28.60
2023-03-04T10:59:26.106Z,24.80
2023-03-04T11:00:26.073Z,25.30
2023-03-04T11:01:26.173Z,20.90
2023-03-04T11:02:26.035Z,31.40
2023-03-04T11:03:29.183Z,27.00
2023-03-04T11:04:26.025Z,28.80
2023-03-04T11:05:26.027Z,29.90
2023-03-04T11:06:25.995Z,30.00
2023-03-04T11:07:26.086Z,26.90
2023-03-04T11:08:25.971Z,27.30
2023-03-04T11:09:26.047Z,26.20
2023-03-04T11:10:25.977Z,24.00
2023-03-04T11:11:25.943Z,21.80
2023-03-04T11:12:26.082Z,29.60
2023-03-04T11:13:25.951Z,30.50
2023-03-04T11:14:25.908Z,22.30
2023-03-04T11:15:26.092Z,27.50
2023-03-04T11:16:25.954Z,28.90
2023-03-04T11:17:25.890Z,23.70
2023-03-04T11:18:25.898Z,29.50
2023-03-04T11:19:25.867Z,25.70
2023-03-04T11:20:25.871Z,30.70
2023-03-04T11:21:25.996Z,30.20
2023-03-04T11:22:25.964Z,30.10
2023-03-04T11:23:25.873Z,24.70
2023-03-04T11:24:29.118Z,27.80
2023-03-04T11:25:25.797Z,30.00
2023-03-04T11:26:25.856Z,26.30
2023-03-04T11:27:25.834Z,26.80
2023-03-04T11:28:25.759Z,33.60
2023-03-04T11:29:25.778Z,24.80
2023-03-04T11:30:25.805Z,25.40
2023-03-04T11:31:25.785Z,26.10
2023-03-04T11:32:25.774Z,26.70
2023-03-04T11:33:25.724Z,24.20
2023-03-04T11:34:25.756Z,25.00
2023-03-04T11:35:25.741Z,22.90
2023-03-04T11:36:25.684Z,25.90
2023-03-04T11:37:25.706Z,25.80
2023-03-04T11:38:25.690Z,27.40
2023-03-04T11:39:25.668Z,29.40
2023-03-04T11:40:25.683Z,25.20
2023-03-04T11:41:25.665Z,31.80
2023-03-04T11:42:25.657Z,25.10
2023-03-04T11:43:25.643Z,26.30
2023-03-04T11:44:25.628Z,27.30
2023-03-04T11:45:29.723Z,28.00
2023-03-04T11:46:25.636Z,23.80
2023-03-04T11:47:25.588Z,24.70
2023-03-04T11:48:25.705Z,24.60
2023-03-04T11:49:25.598Z,28.20
2023-03-04T11:50:25.590Z,23.60
2023-03-04T11:51:25.597Z,27.20
2023-03-04T11:52:25.549Z,32.30
2023-03-04T11:53:25.639Z,22.70
2023-03-04T11:54:25.663Z,25.40
2023-03-04T11:55:25.559Z,19.90
2023-03-04T11:56:25.572Z,22.90
2023-03-04T11:57:25.501Z,23.10
2023-03-04T11:58:25.504Z,22.10
2023-03-04T11:59:25.487Z,24.40
2023-03-04T12:00:25.472Z,22.40
2023-03-04T12:01:25.481Z,20.90
2023-03-04T12:02:25.449Z,34.10
2023-03-04T12:03:25.456Z,31.00
2023-03-04T12:04:25.539Z,25.90
2023-03-04T12:05:25.430Z,27.10
2023-03-04T12:06:25.533Z,23.70
2023-03-04T12:07:25.392Z,26.90
2023-03-04T12:08:25.386Z,25.10
2023-03-04T12:09:25.369Z,29.30
2023-03-04T12:10:25.380Z,21.70
2023-03-04T12:11:25.366Z,24.70
2023-03-04T12:12:25.361Z,29.80
2023-03-04T12:13:25.340Z,23.10
2023-03-04T12:14:25.345Z,23.00
2023-03-04T12:15:25.324Z,24.00
2023-03-04T12:16:25.328Z,26.00
2023-03-04T12:17:25.296Z,23.00
2023-03-04T12:18:25.286Z,27.90
2023-03-04T12:19:25.264Z,20.30
2023-03-04T12:20:25.328Z,26.70
2023-03-04T12:21:25.251Z,19.70
2023-03-04T12:22:25.254Z,26.60
2023-03-04T12:23:25.237Z,24.70
2023-03-04T12:24:25.222Z,26.10
2023-03-04T12:25:25.276Z,24.40
2023-03-04T12:26:25.259Z,22.20
2023-03-04T12:27:25.183Z,27.70
2023-03-04T12:28:25.304Z,21.90
2023-03-04T12:29:25.171Z,20.20
2023-03-04T12:30:25.212Z,19.00
2023-03-04T12:31:25.213Z,24.70
2023-03-04T12:32:25.171Z,19.50
2023-03-04T12:33:25.196Z,20.90
2023-03-04T12:34:25.112Z,23.30
2023-03-04T12:35:25.177Z,19.20
2023-03-04T12:36:25.098Z,21.00
2023-03-04T12:37:25.116Z,19.40
2023-03-04T12:38:25.136Z,26.60
2023-03-04T12:39:25.062Z,24.50
2023-03-04T12:40:25.124Z,18.90
2023-03-04T12:41:25.057Z,23.10
2023-03-04T12:42:25.130Z,21.10
2023-03-04T12:43:25.027Z,20.10
2023-03-04T12:44:25.037Z,15.30
2023-03-04T12:45:25.021Z,19.40
2023-03-04T12:46:25.112Z,17.40
2023-03-04T12:47:25.011Z,18.00
2023-03-04T12:48:25.051Z,22.20
2023-03-04T12:49:25.002Z,18.10
2023-03-04T12:50:25.039Z,19.50
2023-03-04T12:51:24.968Z,16.70
2023-03-04T12:52:24.946Z,15.10